Wilna, New York
Current Conditions -  °F | °C
As of 11:58 PM on Saturday 25 Oct 2014 (Local Time) from KGTB Reporting Station
Broken Clouds Broken Clouds  
Wind Chill: 51°   Ceiling: 7000
Heat Index: 51°   Visibility: 10mi
Dew Point: 41°   Wind: 10mph
Humidity: 68%   Direction: 250°WSW
Pressure: 29.51"   Gusts: NA
Location:  43.9769°N, 75.558°W
Report Text: KGTB 260358Z AUTO 25009KT 10SM BKN070 BKN090 11/05 A2951 RMK AO2 SLP994 T01080052
Loading
Personal Weather Stations






























Interactive Weather Map
Tropical Storm Tracking
New forecast layout! Learn more

10-Day Weather Forecast

Advertisements
Track Severe Weather on mobile